createdAt,value
2022-08-26T00:01:29.716Z,12.27
2022-08-26T00:03:59.764Z,11.97
2022-08-26T00:06:28.807Z,13.87
2022-08-26T00:09:03.987Z,10.20
2022-08-26T00:11:44.006Z,12.47
2022-08-26T00:14:15.268Z,13.77
2022-08-26T00:16:47.638Z,9.53
2022-08-26T00:19:18.527Z,12.87
2022-08-26T00:21:48.727Z,11.43
2022-08-26T00:24:19.576Z,14.63
2022-08-26T00:26:48.536Z,14.70
2022-08-26T00:29:19.554Z,11.33
2022-08-26T00:31:50.574Z,10.43
2022-08-26T00:34:26.014Z,11.63
2022-08-26T00:36:54.876Z,11.67
2022-08-26T00:39:23.877Z,11.13
2022-08-26T00:41:52.795Z,11.40
2022-08-26T00:44:23.624Z,15.23
2022-08-26T00:46:56.664Z,12.93
2022-08-26T00:49:38.958Z,14.50
2022-08-26T00:52:11.973Z,13.33
2022-08-26T00:54:47.433Z,12.80
2022-08-26T00:57:19.275Z,12.80
2022-08-26T00:59:55.815Z,10.73
2022-08-26T01:02:25.641Z,15.63
2022-08-26T01:04:58.125Z,14.90
2022-08-26T01:07:31.172Z,14.17
2022-08-26T01:10:01.495Z,11.57
2022-08-26T01:12:33.341Z,14.17
2022-08-26T01:15:04.996Z,10.77
2022-08-26T01:17:33.982Z,13.07
2022-08-26T01:20:08.355Z,12.50
2022-08-26T01:22:48.135Z,12.53
2022-08-26T01:25:22.637Z,12.67
2022-08-26T01:27:52.195Z,13.23
2022-08-26T01:30:21.607Z,11.53
2022-08-26T01:32:53.345Z,12.00
2022-08-26T01:35:22.506Z,13.73
2022-08-26T01:37:56.575Z,14.93
2022-08-26T01:40:29.502Z,13.77
2022-08-26T01:42:58.666Z,12.20
2022-08-26T01:45:30.807Z,11.97
2022-08-26T01:48:02.058Z,13.80
2022-08-26T01:50:34.634Z,12.87
2022-08-26T01:53:07.937Z,11.03
2022-08-26T01:55:39.529Z,11.33
2022-08-26T01:58:14.843Z,17.60
2022-08-26T02:00:44.088Z,14.30
2022-08-26T02:03:19.054Z,11.23
2022-08-26T02:05:51.416Z,11.57
2022-08-26T02:08:25.308Z,11.87
2022-08-26T02:13:33.124Z,12.70
2022-08-26T02:16:04.580Z,11.87
2022-08-26T02:18:36.695Z,11.57
2022-08-26T02:21:07.188Z,12.97
2022-08-26T02:23:39.005Z,10.87
2022-08-26T02:26:11.657Z,13.20
2022-08-26T02:28:50.320Z,15.77
2022-08-26T02:31:20.201Z,12.10
2022-08-26T02:33:49.870Z,12.30
2022-08-26T02:36:22.436Z,10.33
2022-08-26T02:38:53.588Z,10.73
2022-08-26T02:41:24.654Z,9.87
2022-08-26T02:43:53.555Z,9.00
2022-08-26T02:46:27.969Z,10.30
2022-08-26T02:48:58.945Z,11.40
2022-08-26T02:51:27.805Z,10.20
2022-08-26T02:53:58.665Z,12.83
2022-08-26T02:56:28.016Z,11.17
2022-08-26T02:58:56.867Z,11.90
2022-08-26T03:01:28.272Z,8.80
2022-08-26T03:03:58.037Z,10.40
2022-08-26T03:06:27.342Z,10.20
2022-08-26T03:08:57.886Z,11.73
2022-08-26T03:11:32.284Z,9.10
2022-08-26T03:14:03.479Z,9.53
2022-08-26T03:16:34.380Z,9.20
2022-08-26T03:19:04.103Z,9.33
2022-08-26T03:21:33.522Z,9.37
2022-08-26T03:24:04.016Z,8.80
2022-08-26T03:26:33.251Z,9.20
2022-08-26T03:29:19.682Z,10.03
2022-08-26T03:31:48.603Z,11.47
2022-08-26T03:34:18.830Z,10.13
2022-08-26T03:36:47.748Z,8.60
2022-08-26T03:39:18.782Z,10.80
2022-08-26T03:41:47.700Z,8.47
2022-08-26T03:44:16.637Z,6.70
2022-08-26T03:46:46.576Z,9.40
2022-08-26T03:49:15.519Z,8.70
2022-08-26T03:51:44.450Z,9.27
2022-08-26T03:54:13.870Z,7.13
2022-08-26T03:56:44.247Z,9.47
2022-08-26T03:59:15.519Z,7.33
2022-08-26T04:01:44.516Z,10.90
2022-08-26T04:04:15.557Z,14.03
2022-08-26T04:06:45.345Z,25.63
2022-08-26T04:09:16.441Z,20.57
2022-08-26T04:11:50.674Z,18.33
2022-08-26T04:14:21.384Z,17.07
2022-08-26T04:16:51.403Z,15.83
2022-08-26T04:19:21.845Z,12.30
2022-08-26T04:21:53.435Z,16.50
2022-08-26T04:24:24.324Z,18.47
2022-08-26T04:26:56.687Z,16.53
2022-08-26T04:29:27.386Z,26.10
2022-08-26T04:31:56.787Z,34.57
2022-08-26T04:34:28.380Z,48.63
2022-08-26T04:36:58.115Z,50.87
2022-08-26T04:39:27.745Z,48.73
2022-08-26T04:41:58.452Z,22.47
2022-08-26T04:44:30.678Z,25.17
2022-08-26T04:47:00.031Z,22.37
2022-08-26T04:49:29.136Z,21.40
2022-08-26T04:52:05.568Z,12.23
2022-08-26T04:54:34.376Z,14.67
2022-08-26T04:57:04.847Z,20.80
2022-08-26T04:59:38.480Z,17.60
2022-08-26T05:02:08.706Z,18.53
2022-08-26T05:04:38.107Z,18.47
2022-08-26T05:07:08.367Z,9.10
2022-08-26T05:09:38.697Z,7.83
2022-08-26T05:12:09.724Z,13.47
2022-08-26T05:14:38.661Z,8.23
2022-08-26T05:17:07.777Z,10.83
2022-08-26T05:19:37.512Z,8.97
2022-08-26T05:22:13.198Z,9.07
2022-08-26T05:24:42.485Z,7.47
2022-08-26T05:27:14.988Z,9.90
2022-08-26T05:29:44.307Z,7.20
2022-08-26T05:32:13.443Z,6.13
2022-08-26T05:34:43.232Z,8.80
2022-08-26T05:37:13.611Z,7.27
2022-08-26T05:39:43.559Z,10.97
2022-08-26T05:42:21.818Z,7.60
2022-08-26T05:44:55.605Z,7.73
2022-08-26T05:47:24.860Z,6.57
2022-08-26T05:49:54.063Z,6.03
2022-08-26T05:52:25.886Z,8.17
2022-08-26T05:54:55.426Z,8.80
2022-08-26T05:57:25.991Z,6.43
2022-08-26T05:59:55.093Z,8.07
2022-08-26T06:02:25.541Z,9.83
2022-08-26T06:04:54.954Z,6.97
2022-08-26T06:07:44.542Z,9.37
2022-08-26T06:10:33.370Z,8.53
2022-08-26T06:13:09.258Z,7.47
2022-08-26T06:15:45.864Z,6.20
2022-08-26T06:18:17.191Z,8.13
2022-08-26T06:20:53.740Z,6.67
2022-08-26T06:23:45.839Z,5.50
2022-08-26T06:26:15.961Z,7.90
2022-08-26T06:28:46.351Z,6.17
2022-08-26T06:31:17.301Z,7.20
2022-08-26T06:33:46.992Z,9.77
2022-08-26T06:36:20.481Z,7.50
2022-08-26T06:38:50.678Z,7.83
2022-08-26T06:41:21.395Z,10.23
2022-08-26T06:43:52.011Z,8.40
2022-08-26T06:46:23.249Z,6.43
2022-08-26T06:48:55.634Z,7.13
2022-08-26T06:51:27.129Z,5.33
2022-08-26T06:53:59.756Z,7.40
2022-08-26T06:56:31.023Z,6.40
2022-08-26T06:59:01.568Z,7.27
2022-08-26T07:01:33.469Z,7.23
2022-08-26T07:04:05.065Z,8.20
2022-08-26T07:06:41.975Z,7.23
2022-08-26T07:09:12.453Z,7.13
2022-08-26T07:11:42.995Z,6.03
2022-08-26T07:14:13.953Z,6.70
2022-08-26T07:16:43.305Z,6.93
2022-08-26T07:19:12.666Z,6.60
2022-08-26T07:21:42.665Z,4.70
2022-08-26T07:24:12.423Z,7.57
2022-08-26T07:26:43.079Z,4.00
2022-08-26T07:29:15.355Z,6.00
2022-08-26T07:31:47.112Z,4.57
2022-08-26T07:34:17.783Z,4.10
2022-08-26T07:36:46.784Z,6.43
2022-08-26T07:39:18.250Z,4.50
2022-08-26T07:41:48.100Z,4.88
2022-08-26T07:44:19.642Z,6.13
2022-08-26T07:46:53.233Z,7.30
2022-08-26T07:49:23.353Z,6.57
2022-08-26T07:51:52.859Z,5.28
2022-08-26T07:54:27.075Z,7.50
2022-08-26T07:56:56.973Z,4.90
2022-08-26T07:59:27.307Z,5.65
2022-08-26T08:01:58.080Z,6.05
2022-08-26T08:04:26.917Z,4.93
2022-08-26T08:06:56.686Z,4.40
2022-08-26T08:09:26.148Z,5.93
2022-08-26T08:11:56.011Z,8.73
2022-08-26T08:14:26.678Z,10.00
2022-08-26T08:16:57.206Z,6.93
2022-08-26T08:19:28.393Z,5.78
2022-08-26T08:22:17.911Z,5.63
2022-08-26T08:24:49.929Z,6.28
2022-08-26T08:27:24.138Z,5.38
2022-08-26T08:29:55.967Z,4.70
2022-08-26T08:32:25.326Z,5.40
2022-08-26T08:34:54.627Z,4.60
2022-08-26T08:37:23.753Z,3.35
2022-08-26T08:39:52.688Z,4.30
2022-08-26T08:42:45.958Z,4.13
2022-08-26T08:45:23.768Z,7.03
2022-08-26T08:47:57.129Z,4.15
2022-08-26T08:50:30.238Z,5.15
2022-08-26T08:53:11.898Z,3.90
2022-08-26T08:55:50.887Z,4.97
2022-08-26T08:58:23.700Z,4.70
2022-08-26T09:01:01.743Z,3.33
2022-08-26T09:03:43.167Z,4.82
2022-08-26T09:06:19.174Z,5.15
2022-08-26T09:08:50.688Z,4.60
2022-08-26T09:11:21.427Z,6.10
2022-08-26T09:13:53.899Z,4.60
2022-08-26T09:16:29.270Z,3.72
2022-08-26T09:19:19.361Z,4.60
2022-08-26T09:21:56.975Z,5.90
2022-08-26T09:24:28.545Z,8.85
2022-08-26T09:26:59.485Z,6.75
2022-08-26T09:29:30.318Z,5.55
2022-08-26T09:32:20.220Z,3.30
2022-08-26T09:34:58.991Z,4.07
2022-08-26T09:37:40.352Z,4.53
2022-08-26T09:40:27.013Z,4.78
2022-08-26T09:43:22.842Z,5.82
2022-08-26T09:45:59.111Z,5.25
2022-08-26T09:48:36.058Z,4.25
2022-08-26T09:51:07.375Z,6.50
2022-08-26T09:53:51.777Z,4.90
2022-08-26T09:56:29.748Z,4.57
2022-08-26T09:58:59.378Z,5.78
2022-08-26T10:01:32.888Z,5.82
2022-08-26T10:04:10.090Z,3.42
2022-08-26T10:06:43.457Z,4.53
2022-08-26T10:09:18.033Z,4.28
2022-08-26T10:11:51.698Z,6.38
2022-08-26T10:14:25.951Z,6.68
2022-08-26T10:17:01.822Z,4.20
2022-08-26T10:19:55.654Z,5.28
2022-08-26T10:22:30.179Z,3.72
2022-08-26T10:25:03.857Z,6.35
2022-08-26T10:27:51.026Z,8.15
2022-08-26T10:30:24.433Z,6.82
2022-08-26T10:32:58.195Z,6.80
2022-08-26T10:35:29.373Z,6.63
2022-08-26T10:38:04.313Z,5.20
2022-08-26T10:40:43.850Z,4.60
2022-08-26T10:43:19.454Z,5.60
2022-08-26T10:45:52.435Z,4.90
2022-08-26T10:48:35.595Z,4.80
2022-08-26T10:51:08.665Z,5.72
2022-08-26T10:53:46.614Z,3.50
2022-08-26T10:56:31.269Z,10.98
2022-08-26T10:59:12.234Z,6.72
2022-08-26T11:01:50.845Z,6.65
2022-08-26T11:04:37.640Z,5.30
2022-08-26T11:07:46.389Z,7.10
2022-08-26T11:10:47.510Z,6.32
2022-08-26T11:13:19.936Z,8.25
2022-08-26T11:16:01.076Z,16.88
2022-08-26T11:18:51.289Z,12.02
2022-08-26T11:22:06.380Z,8.55
2022-08-26T11:24:47.748Z,6.05
2022-08-26T11:27:55.643Z,4.65
2022-08-26T11:30:56.925Z,7.75
2022-08-26T11:33:48.782Z,8.45
2022-08-26T11:36:55.863Z,6.95
2022-08-26T11:39:30.161Z,5.00
2022-08-26T11:42:03.344Z,4.93
2022-08-26T11:44:40.666Z,6.32
2022-08-26T11:47:13.594Z,5.75
2022-08-26T11:49:42.552Z,8.70
2022-08-26T11:52:15.443Z,7.00
2022-08-26T11:55:01.693Z,7.55
2022-08-26T11:57:32.329Z,6.15
2022-08-26T12:00:01.836Z,6.65
2022-08-26T12:02:32.274Z,7.03
2022-08-26T12:05:02.318Z,8.18
2022-08-26T12:07:31.681Z,5.63
2022-08-26T12:10:07.145Z,6.10
2022-08-26T12:12:38.991Z,5.70
2022-08-26T12:15:17.607Z,6.65
2022-08-26T12:17:53.360Z,7.78
2022-08-26T12:20:46.150Z,7.43
2022-08-26T12:23:26.881Z,8.13
2022-08-26T12:26:05.804Z,6.05
2022-08-26T12:28:35.137Z,6.78
2022-08-26T12:31:05.959Z,7.25
2022-08-26T12:33:37.472Z,7.82
2022-08-26T12:36:07.457Z,7.43
2022-08-26T12:38:40.715Z,5.85
2022-08-26T12:41:09.876Z,10.63
2022-08-26T12:43:42.554Z,5.88
2022-08-26T12:46:14.137Z,7.28
2022-08-26T12:48:48.956Z,8.30
2022-08-26T12:51:25.881Z,7.85
2022-08-26T12:53:55.620Z,7.28
2022-08-26T12:56:31.146Z,7.63
2022-08-26T12:59:05.762Z,8.30
2022-08-26T13:01:40.475Z,10.23
2022-08-26T13:04:34.197Z,8.75
2022-08-26T13:07:24.546Z,7.80
2022-08-26T13:09:54.747Z,8.18
2022-08-26T13:12:30.345Z,6.70
2022-08-26T13:15:00.900Z,7.43
2022-08-26T13:17:31.494Z,10.13
2022-08-26T13:20:04.116Z,7.63
2022-08-26T13:22:33.750Z,7.35
2022-08-26T13:25:02.764Z,8.25
2022-08-26T13:27:31.647Z,13.02
2022-08-26T13:30:01.876Z,7.55
2022-08-26T13:32:30.757Z,8.02
2022-08-26T13:35:05.677Z,7.60
2022-08-26T13:37:35.670Z,11.27
2022-08-26T13:40:06.489Z,7.97
2022-08-26T13:42:35.814Z,5.20
2022-08-26T13:45:05.909Z,6.03
2022-08-26T13:47:34.877Z,5.10
2022-08-26T13:50:06.956Z,7.20
2022-08-26T13:52:35.819Z,6.10
2022-08-26T13:55:05.358Z,6.97
2022-08-26T13:57:34.215Z,9.00
2022-08-26T14:00:03.849Z,6.75
2022-08-26T14:02:32.691Z,7.50
2022-08-26T14:05:01.665Z,19.05
2022-08-26T14:07:32.229Z,9.88
2022-08-26T14:10:01.915Z,9.27
2022-08-26T14:12:30.821Z,8.07
2022-08-26T14:15:00.715Z,7.95
2022-08-26T14:17:30.780Z,5.88
2022-08-26T14:20:00.130Z,5.65
2022-08-26T14:22:31.622Z,9.55
2022-08-26T14:25:01.000Z,7.78
2022-08-26T14:27:29.880Z,8.48
2022-08-26T14:29:59.796Z,8.65
2022-08-26T14:32:30.232Z,9.20
2022-08-26T14:34:59.366Z,11.35
2022-08-26T14:37:28.414Z,10.75
2022-08-26T14:39:58.872Z,8.23
2022-08-26T14:42:31.399Z,10.60
2022-08-26T14:45:03.505Z,12.32
2022-08-26T14:47:32.699Z,7.82
2022-08-26T14:50:01.983Z,8.52
2022-08-26T14:52:51.154Z,7.60
2022-08-26T14:55:20.851Z,14.40
2022-08-26T14:57:49.803Z,10.27
2022-08-26T15:00:19.074Z,9.90
2022-08-26T15:02:48.226Z,7.72
2022-08-26T15:05:17.463Z,11.05
2022-08-26T15:07:46.264Z,6.35
2022-08-26T15:10:17.294Z,5.43
2022-08-26T15:12:47.815Z,12.40
2022-08-26T15:15:18.884Z,8.00
2022-08-26T15:17:47.871Z,8.52
2022-08-26T15:20:18.454Z,8.13
2022-08-26T15:22:47.362Z,7.43
2022-08-26T15:25:16.969Z,6.65
2022-08-26T15:27:47.282Z,8.52
2022-08-26T15:30:17.035Z,10.90
2022-08-26T15:32:45.929Z,10.68
2022-08-26T15:35:14.874Z,10.48
2022-08-26T15:37:43.785Z,15.48
2022-08-26T15:40:13.734Z,13.50
2022-08-26T15:42:42.706Z,16.67
2022-08-26T15:45:24.788Z,18.58
2022-08-26T15:48:04.327Z,13.65
2022-08-26T15:50:33.253Z,21.38
2022-08-26T15:53:01.997Z,30.30
2022-08-26T15:55:30.819Z,30.33
2022-08-26T15:58:00.240Z,40.28
2022-08-26T16:00:31.583Z,34.13
2022-08-26T16:03:00.509Z,30.67
2022-08-26T16:05:29.420Z,29.35
2022-08-26T16:07:58.408Z,15.82
2022-08-26T16:10:27.990Z,14.00
2022-08-26T16:12:57.223Z,12.23
2022-08-26T16:15:26.326Z,13.05
2022-08-26T16:17:56.677Z,12.57
2022-08-26T16:20:26.406Z,12.10
2022-08-26T16:22:55.376Z,10.90
2022-08-26T16:25:24.522Z,10.20
2022-08-26T16:27:53.686Z,11.05
2022-08-26T16:30:23.754Z,9.30
2022-08-26T16:32:52.952Z,11.10
2022-08-26T16:35:23.506Z,13.27
2022-08-26T16:37:52.472Z,11.68
2022-08-26T16:40:23.230Z,10.90
2022-08-26T16:42:52.472Z,11.95
2022-08-26T16:45:21.542Z,18.10
2022-08-26T16:47:51.321Z,12.90
2022-08-26T16:50:21.230Z,13.93
2022-08-26T16:52:55.785Z,13.87
2022-08-26T16:55:25.356Z,16.17
2022-08-26T16:57:54.473Z,26.00
2022-08-26T17:00:27.809Z,17.10
2022-08-26T17:02:57.132Z,17.97
2022-08-26T17:05:26.763Z,10.60
2022-08-26T17:07:58.308Z,10.07
2022-08-26T17:10:28.857Z,9.87
2022-08-26T17:12:58.556Z,10.63
2022-08-26T17:15:27.938Z,9.63
2022-08-26T17:17:57.717Z,15.40
2022-08-26T17:20:27.250Z,8.43
2022-08-26T17:22:59.381Z,9.57
2022-08-26T17:25:30.806Z,13.77
2022-08-26T17:28:00.645Z,10.13
2022-08-26T17:30:29.843Z,9.03
2022-08-26T17:33:00.031Z,12.53
2022-08-26T17:35:29.049Z,12.97
2022-08-26T17:38:00.037Z,9.97
2022-08-26T17:40:30.956Z,11.40
2022-08-26T17:43:00.327Z,10.50
2022-08-26T17:45:29.549Z,13.57
2022-08-26T17:47:58.719Z,10.17
2022-08-26T17:50:27.691Z,8.77
2022-08-26T17:52:58.809Z,8.57
2022-08-26T17:55:27.826Z,11.00
2022-08-26T17:57:56.729Z,13.60
2022-08-26T18:00:27.879Z,11.60
2022-08-26T18:02:57.154Z,9.17
2022-08-26T18:05:26.448Z,13.37
2022-08-26T18:07:55.260Z,11.17
2022-08-26T18:10:26.438Z,18.97
2022-08-26T18:12:55.328Z,11.37
2022-08-26T18:15:25.727Z,11.80
2022-08-26T18:17:54.677Z,9.50
2022-08-26T18:20:23.686Z,9.43
2022-08-26T18:22:52.569Z,10.30
2022-08-26T18:25:21.589Z,12.73
2022-08-26T18:27:51.949Z,10.63
2022-08-26T18:30:22.950Z,12.03
2022-08-26T18:32:52.168Z,10.10
2022-08-26T18:35:21.698Z,9.83
2022-08-26T18:37:50.477Z,11.33
2022-08-26T18:40:19.610Z,14.17
2022-08-26T18:42:49.371Z,11.23
2022-08-26T18:45:25.579Z,12.57
2022-08-26T18:47:54.441Z,12.73
2022-08-26T18:50:23.390Z,11.27
2022-08-26T18:52:54.377Z,12.23
2022-08-26T18:55:24.693Z,10.30
2022-08-26T18:57:54.155Z,11.93
2022-08-26T19:00:24.667Z,15.33
2022-08-26T19:02:55.966Z,10.83
2022-08-26T19:05:25.872Z,10.70
2022-08-26T19:07:55.581Z,13.63
2022-08-26T19:10:24.847Z,12.43
2022-08-26T19:12:55.411Z,15.67
2022-08-26T19:15:29.550Z,12.53
2022-08-26T19:17:58.886Z,13.63
2022-08-26T19:20:27.806Z,15.90
2022-08-26T19:22:59.660Z,11.60
2022-08-26T19:25:31.881Z,13.27
2022-08-26T19:28:01.221Z,13.57
2022-08-26T19:30:31.721Z,13.13
2022-08-26T19:33:02.654Z,13.73
2022-08-26T19:35:34.041Z,11.30
2022-08-26T19:38:03.772Z,19.60
2022-08-26T19:40:33.721Z,16.67
2022-08-26T19:43:03.132Z,13.73
2022-08-26T19:45:34.835Z,14.33
2022-08-26T19:48:04.909Z,14.67
2022-08-26T19:50:35.850Z,14.37
2022-08-26T19:53:06.453Z,13.30
2022-08-26T19:55:35.421Z,28.93
2022-08-26T19:58:04.503Z,19.53
2022-08-26T20:00:37.009Z,29.83
2022-08-26T20:03:06.281Z,19.80
2022-08-26T20:05:40.928Z,12.03
2022-08-26T20:08:21.958Z,16.23
2022-08-26T20:10:53.026Z,13.10
2022-08-26T20:13:22.943Z,13.60
2022-08-26T20:15:53.537Z,16.50
2022-08-26T20:18:39.883Z,29.40
2022-08-26T20:21:26.311Z,28.00
2022-08-26T20:23:56.973Z,40.53
2022-08-26T20:26:26.315Z,33.23
2022-08-26T20:28:55.699Z,26.67
2022-08-26T20:31:27.749Z,24.73
2022-08-26T20:33:57.222Z,23.03
2022-08-26T20:36:28.424Z,15.70
2022-08-26T20:38:58.325Z,14.83
2022-08-26T20:41:29.295Z,16.57
2022-08-26T20:43:58.674Z,13.20
2022-08-26T20:46:29.571Z,13.57
2022-08-26T20:49:00.848Z,13.40
2022-08-26T20:51:30.212Z,12.53
2022-08-26T20:54:00.747Z,13.37
2022-08-26T20:56:29.961Z,14.17
2022-08-26T20:59:01.693Z,14.03
2022-08-26T21:01:35.395Z,10.60
2022-08-26T21:04:10.063Z,12.53
2022-08-26T21:06:39.846Z,11.70
2022-08-26T21:09:13.155Z,12.10
2022-08-26T21:11:45.274Z,14.43
2022-08-26T21:14:16.682Z,12.50
2022-08-26T21:16:48.236Z,11.50
2022-08-26T21:19:20.490Z,10.53
2022-08-26T21:21:50.441Z,10.60
2022-08-26T21:24:19.401Z,11.90
2022-08-26T21:26:48.734Z,10.00
2022-08-26T21:29:19.738Z,10.93
2022-08-26T21:32:08.987Z,10.30
2022-08-26T21:34:41.562Z,10.00
2022-08-26T21:37:16.347Z,9.63
2022-08-26T21:39:45.676Z,11.13
2022-08-26T21:42:14.831Z,11.07
2022-08-26T21:44:48.979Z,10.13
2022-08-26T21:47:23.803Z,13.47
2022-08-26T21:49:53.056Z,11.53
2022-08-26T21:52:22.832Z,14.83
2022-08-26T21:54:51.800Z,12.43
2022-08-26T21:57:21.421Z,12.37
2022-08-26T21:59:50.622Z,14.83
2022-08-26T22:02:19.744Z,11.17
2022-08-26T22:04:50.441Z,12.20
2022-08-26T22:07:21.823Z,11.03
2022-08-26T22:09:50.791Z,13.13
2022-08-26T22:12:34.958Z,10.97
2022-08-26T22:15:04.342Z,11.00
2022-08-26T22:17:33.390Z,13.10
2022-08-26T22:20:03.800Z,12.10
2022-08-26T22:22:32.770Z,12.70
2022-08-26T22:25:01.684Z,10.93
2022-08-26T22:27:31.885Z,9.97
2022-08-26T22:30:00.941Z,12.83
2022-08-26T22:32:30.063Z,13.30
2022-08-26T22:35:11.348Z,12.20
2022-08-26T22:37:58.021Z,13.60
2022-08-26T22:40:27.094Z,11.53
2022-08-26T22:43:00.130Z,12.00
2022-08-26T22:45:31.684Z,16.13
2022-08-26T22:48:02.352Z,12.77
2022-08-26T22:50:32.853Z,13.10
2022-08-26T22:53:01.790Z,12.53
2022-08-26T22:55:30.825Z,14.97
2022-08-26T22:57:59.702Z,15.90
2022-08-26T23:00:32.395Z,11.37
2022-08-26T23:03:04.967Z,13.23
2022-08-26T23:05:35.489Z,14.13
2022-08-26T23:08:04.686Z,13.87
2022-08-26T23:10:34.073Z,12.43
2022-08-26T23:13:03.945Z,13.07
2022-08-26T23:15:33.602Z,12.60
2022-08-26T23:18:02.648Z,11.30
2022-08-26T23:20:32.583Z,10.67
2022-08-26T23:23:03.332Z,12.97
2022-08-26T23:25:32.882Z,10.70
2022-08-26T23:28:02.648Z,12.13
2022-08-26T23:30:34.830Z,12.07
2022-08-26T23:33:03.703Z,12.10
2022-08-26T23:35:31.603Z,11.63
2022-08-26T23:38:03.822Z,12.23
2022-08-26T23:40:37.592Z,11.00
2022-08-26T23:43:08.556Z,12.50
2022-08-26T23:45:37.788Z,11.63
2022-08-26T23:48:07.868Z,12.23
2022-08-26T23:50:54.259Z,12.27
2022-08-26T23:53:24.724Z,15.80
2022-08-26T23:55:54.494Z,15.40
2022-08-26T23:58:23.912Z,11.30
